Airfield :
LOGIN :

Register | Disclaimer

   EN    FR    IT 

 










Legend :    VFR   Marginal VFR   IFR   Intensive IFR   Very Intensive IFR
Visi :
Ceiling :
>= 8 km
>= 3000ft
5 to 8 km
1000 to 3000 ft
1500m to 5 km
500 to 1000 ft
800 to 1500m
200 to 500 ft
< 800m
< 200 ft
Symbols :   Thunderstorms  Fog  Heavy snow  Heavy precipitations  Wind > 20 kt
SIGMETs :     Misc.  Thunderstorms  Icing  Turbulence  Mountain Waves  Volcanic Ashes






- Airport Elevation : 665 ft
- IATA code : NOC


EIKN - Connaught / Knock- Ireland West

CURRENT METAR :
  • 081630Z 14002KT 9999 SCT024 19/11 Q1024 NOSIG

EXPIRED METARs :
  • 081600Z 13004KT 9999 BKN023 19/11 Q1024 NOSIG
  • 081530Z VRB01KT 9999 SCT022 19/10 Q1024 NOSIG

TAF TAF EIKN
Valid from the 08 at 18:00 until the 09 at 18:00 UTC


081700Z 0818/0918 15005KT 9999 SCT022
BECMG 0818/0820 31005KT
BECMG 0822/0824 VRB03KT
BECMG 0916/0918 34010KT



MET'MAP, your aeronautical weather chart ! - Copyright ORBIFLY December 2007 - Disclaimer

ORBIFLY MET'MAP TEAM :

Programming & Development : Alexandra Zaïnal
Concept & original design : Baudouin d'Aumeries
Assistance for programming : Marc-Olivier Méhu
Technical & hardware support : Manuel Goepfert

Contact : metmap@orbifly.com




SOURCES & CREDITS :

   NOAA